Time;durP1;ratioP1;P1;durP2;ratioP2;P2;SDS_P1;SDS_P2;PMS_P1;PMS_P2;Temp;Humidity;BMP_temperature;BMP_pressure;BME280_temperature;BME280_humidity;BME280_pressure;Samples;Min_cycle;Max_cycle;Signal;HPM_P1;HPM_P2
2023/08/27 00:02:06;;;;;;;0.00;0.00;;;;;;;15.72;100.00;100847.47;5051257;28;20041;-46
2023/08/27 00:04:32;;;;;;;0.00;0.00;;;;;;;15.74;100.00;100838.03;5050972;28;20497;-46
2023/08/27 00:06:57;;;;;;;0.00;0.00;;;;;;;15.79;100.00;100834.69;5050783;28;20033;-45
2023/08/27 00:09:23;;;;;;;0.00;0.00;;;;;;;15.79;100.00;100826.56;5050983;28;20434;-43
2023/08/27 00:11:48;;;;;;;0.00;0.00;;;;;;;15.78;100.00;100836.59;5051014;28;20100;-44
2023/08/27 00:14:13;;;;;;;0.00;0.00;;;;;;;15.80;100.00;100833.66;5063815;28;20035;-45
2023/08/27 00:16:39;;;;;;;0.00;0.00;;;;;;;15.79;100.00;100832.81;5074144;28;20028;-45
2023/08/27 00:19:05;;;;;;;0.00;0.00;;;;;;;15.77;100.00;100832.22;5090137;28;20047;-46
2023/08/27 00:21:31;;;;;;;0.00;0.00;;;;;;;15.76;100.00;100833.25;5090273;28;20036;-45
2023/08/27 00:23:57;;;;;;;0.00;0.00;;;;;;;15.74;100.00;100831.78;5069508;28;20028;-45
2023/08/27 00:26:23;;;;;;;0.00;0.00;;;;;;;15.74;100.00;100827.19;5070238;28;20085;-48
2023/08/27 00:28:48;;;;;;;0.00;0.00;;;;;;;15.67;100.00;100825.56;5070687;28;20459;-46
2023/08/27 00:31:14;;;;;;;0.00;0.00;;;;;;;15.63;100.00;100827.84;5084926;28;20032;-48
2023/08/27 00:33:39;;;;;;;0.00;0.00;;;;;;;15.58;100.00;100831.19;5069919;28;20099;-42
2023/08/27 00:36:05;;;;;;;0.00;0.00;;;;;;;15.59;100.00;100829.34;5071212;28;20047;-46
2023/08/27 00:38:30;;;;;;;0.00;0.00;;;;;;;15.61;100.00;100829.13;5074150;28;20024;-47
2023/08/27 00:40:55;;;;;;;0.00;0.00;;;;;;;15.59;100.00;100834.78;5056172;28;20032;-50
2023/08/27 00:43:21;;;;;;;0.00;0.00;;;;;;;15.58;100.00;100835.81;5061115;28;20028;-47
2023/08/27 00:45:46;;;;;;;0.00;0.00;;;;;;;15.62;100.00;100833.50;5054022;28;20391;-44
2023/08/27 00:48:12;;;;;;;0.00;0.00;;;;;;;15.61;100.00;100831.81;5052718;28;20059;-45
2023/08/27 00:50:37;;;;;;;0.00;0.00;;;;;;;15.64;100.00;100823.25;5052426;28;20036;-43
2023/08/27 00:53:03;;;;;;;0.00;0.00;;;;;;;15.67;100.00;100817.41;5053762;28;20709;-45
2023/08/27 00:55:28;;;;;;;0.00;0.00;;;;;;;15.69;100.00;100815.31;5052673;28;20037;-44
2023/08/27 00:57:54;;;;;;;0.00;0.00;;;;;;;15.70;100.00;100811.59;5053210;28;20252;-45
2023/08/27 01:00:20;;;;;;;0.00;0.00;;;;;;;15.66;100.00;100800.28;5072647;28;20073;-43
2023/08/27 01:02:47;;;;;;;0.00;0.00;;;;;;;15.67;100.00;100804.69;5055976;28;20044;-45
2023/08/27 01:05:13;;;;;;;0.00;0.00;;;;;;;15.64;100.00;100798.84;5073614;28;20028;-45
2023/08/27 01:08:12;;;;;;;0.00;0.00;;;;;;;15.63;100.00;100794.47;5073984;28;20035;-46
2023/08/27 01:10:59;;;;;;;0.00;0.00;;;;;;;15.59;100.00;100789.47;5060633;28;20460;-47
2023/08/27 01:13:31;;;;;;;0.00;0.00;;;;;;;15.59;100.00;100784.06;5073396;28;20033;-46
2023/08/27 01:15:58;;;;;;;0.00;0.00;;;;;;;15.58;100.00;100785.09;5073216;28;20399;-49
2023/08/27 01:18:23;;;;;;;0.00;0.00;;;;;;;15.57;100.00;100785.31;5055179;28;20474;-45
2023/08/27 01:20:49;;;;;;;0.00;0.00;;;;;;;15.59;100.00;100778.63;5073100;28;20109;-46
2023/08/27 01:23:14;;;;;;;0.00;0.00;;;;;;;15.61;100.00;100774.84;5055380;28;20490;-47
2023/08/27 01:25:44;;;;;;;0.00;0.00;;;;;;;15.57;100.00;100767.16;5073241;28;20360;-46
2023/08/27 01:28:19;;;;;;;0.00;0.00;;;;;;;15.61;100.00;100769.44;5073001;28;20090;-45
2023/08/27 01:30:55;;;;;;;0.00;0.00;;;;;;;15.65;100.00;100776.94;5089779;28;20048;-45
2023/08/27 01:33:26;;;;;;;0.00;0.00;;;;;;;15.62;100.00;100771.94;5073853;28;20111;-44
2023/08/27 01:35:51;;;;;;;0.00;0.00;;;;;;;15.62;100.00;100782.78;5056461;28;20421;-44
2023/08/27 01:38:18;;;;;;;0.00;0.00;;;;;;;15.61;100.00;100785.72;5055116;28;20025;-44
2023/08/27 01:40:43;;;;;;;0.00;0.00;;;;;;;15.57;100.00;100793.47;5054785;28;20063;-46
2023/08/27 01:43:09;;;;;;;0.00;0.00;;;;;;;15.53;100.00;100798.50;5072647;28;20028;-44
2023/08/27 01:45:34;;;;;;;0.00;0.00;;;;;;;15.55;100.00;100788.22;5072370;28;20028;-45
2023/08/27 01:47:59;;;;;;;0.00;0.00;;;;;;;15.56;100.00;100792.63;5078406;28;20039;-45
2023/08/27 01:50:25;;;;;;;0.00;0.00;;;;;;;15.56;100.00;100795.34;5077914;28;20035;-46
2023/08/27 01:52:50;;;;;;;0.00;0.00;;;;;;;15.61;100.00;100785.72;5072730;28;20116;-46
2023/08/27 01:55:16;;;;;;;0.00;0.00;;;;;;;15.63;100.00;100780.91;5056539;28;20063;-47
2023/08/27 01:57:41;;;;;;;0.00;0.00;;;;;;;15.66;100.00;100777.75;5072972;28;20029;-44
2023/08/27 02:00:09;;;;;;;0.00;0.00;;;;;;;15.63;100.00;100783.63;5072150;28;20021;-47
2023/08/27 02:02:36;;;;;;;;;;;;;;;15.59;100.00;100784.06;5073198;28;20040;-44
2023/08/27 02:05:05;;;;;;;0.00;0.00;;;;;;;15.59;100.00;100797.63;5072919;28;19916;-44
2023/08/27 02:07:31;;;;;;;0.00;0.00;;;;;;;15.60;100.00;100795.72;5073293;28;20040;-46
2023/08/27 02:09:56;;;;;;;0.00;0.00;;;;;;;15.59;100.00;100796.78;5093765;28;20020;-45
2023/08/27 02:12:22;;;;;;;0.00;0.00;;;;;;;15.58;100.00;100793.22;5093697;28;20028;-46
2023/08/27 02:14:47;;;;;;;0.00;0.00;;;;;;;15.58;100.00;100792.41;5093452;28;20509;-44
2023/08/27 02:17:13;;;;;;;0.00;0.00;;;;;;;15.61;100.00;100794.66;5092478;28;20093;-43
2023/08/27 02:19:38;;;;;;;0.00;0.00;;;;;;;15.59;100.00;100789.47;5092558;28;20028;-46
2023/08/27 02:22:03;;;;;;;0.00;0.00;;;;;;;15.59;100.00;100794.91;5086238;28;20070;-46
2023/08/27 02:24:29;;;;;;;0.00;0.00;;;;;;;15.58;100.00;100786.97;5089944;28;20535;-45
2023/08/27 02:26:54;;;;;;;0.00;0.00;;;;;;;15.58;100.00;100787.78;5072086;28;20040;-45
2023/08/27 02:29:19;;;;;;;0.00;0.00;;;;;;;15.58;100.00;100790.50;5071204;28;20078;-47
2023/08/27 02:31:45;;;;;;;0.00;0.00;;;;;;;15.59;100.00;100784.06;5071523;28;20071;-44
2023/08/27 02:34:10;;;;;;;0.00;0.00;;;;;;;15.61;100.00;100785.72;5073856;28;20064;-43
2023/08/27 02:36:35;;;;;;;0.00;0.00;;;;;;;15.59;100.00;100792.19;5084194;28;20032;-44
2023/08/27 02:39:01;;;;;;;0.00;0.00;;;;;;;15.58;100.00;100793.22;5082198;28;20028;-45
2023/08/27 02:41:26;;;;;;;0.00;0.00;;;;;;;15.62;100.00;100803.66;5054885;28;20158;-46
2023/08/27 02:43:52;;;;;;;0.00;0.00;;;;;;;15.65;100.00;100801.34;5054663;28;20020;-46
2023/08/27 02:46:17;;;;;;;0.00;0.00;;;;;;;15.66;100.00;100808.41;5071463;28;20055;-47
2023/08/27 02:48:42;;;;;;;0.00;0.00;;;;;;;15.74;100.00;100818.22;5071574;28;20024;-46
2023/08/27 02:51:08;;;;;;;0.00;0.00;;;;;;;15.80;100.00;100822.81;5072209;28;20055;-43
2023/08/27 02:53:33;;;;;;;0.00;0.00;;;;;;;15.84;100.00;100821.31;5071482;28;20028;-45
2023/08/27 02:55:58;;;;;;;0.00;0.00;;;;;;;15.73;100.00;100817.41;5071800;28;20115;-43
2023/08/27 02:58:24;;;;;;;0.00;0.00;;;;;;;15.48;100.00;100809.16;5072113;28;20116;-44
2023/08/27 03:00:49;;;;;;;0.00;0.00;;;;;;;15.28;100.00;100805.69;5071147;28;20132;-44
2023/08/27 03:03:14;;;;;;;0.00;0.00;;;;;;;15.08;100.00;100811.97;5071320;28;20060;-50
2023/08/27 03:05:40;;;;;;;0.00;0.00;;;;;;;14.93;100.00;100825.78;5071377;28;20479;-48
2023/08/27 03:08:06;;;;;;;0.00;0.00;;;;;;;14.90;100.00;100838.91;5052557;28;20051;-49
2023/08/27 03:10:31;;;;;;;0.00;0.00;;;;;;;14.82;100.00;100844.53;5071095;28;20029;-47
2023/08/27 03:12:56;;;;;;;0.00;0.00;;;;;;;14.76;100.00;100843.50;5075218;28;20500;-45
2023/08/27 03:15:22;;;;;;;0.00;0.00;;;;;;;14.73;100.00;100845.81;5091520;28;20047;-44
2023/08/27 03:17:47;;;;;;;0.00;0.00;;;;;;;14.67;100.00;100848.31;5082826;28;20028;-43
2023/08/27 03:20:13;;;;;;;0.00;0.00;;;;;;;14.61;100.00;100841.03;5071071;28;20033;-44
2023/08/27 03:22:38;;;;;;;0.00;0.00;;;;;;;14.58;100.00;100836.00;5070600;28;20086;-45
2023/08/27 03:25:05;;;;;;;0.00;0.00;;;;;;;14.57;100.00;100839.78;5090414;28;20152;-45
2023/08/27 03:27:33;;;;;;;0.00;0.00;;;;;;;14.53;100.00;100824.97;5077352;28;20042;-46
2023/08/27 03:29:58;;;;;;;0.00;0.00;;;;;;;14.52;100.00;100820.56;5070636;28;20028;-49
2023/08/27 03:32:24;;;;;;;0.00;0.00;;;;;;;14.50;100.00;100819.94;5070850;28;20112;-47
2023/08/27 03:34:49;;;;;;;0.00;0.00;;;;;;;14.48;100.00;100820.16;5070496;28;20403;-46
2023/08/27 03:37:14;;;;;;;0.00;0.00;;;;;;;14.43;100.00;100801.00;5082381;28;20020;-47
2023/08/27 03:39:40;;;;;;;0.00;0.00;;;;;;;14.49;100.00;100780.38;5087379;28;20367;-46
2023/08/27 03:42:05;;;;;;;0.00;0.00;;;;;;;14.49;100.00;100777.66;5072367;28;20066;-46
2023/08/27 03:44:31;;;;;;;0.00;0.00;;;;;;;14.43;100.00;100770.38;5071999;28;20036;-47
2023/08/27 03:46:56;;;;;;;0.00;0.00;;;;;;;14.34;100.00;100775.16;5071533;28;20094;-47
2023/08/27 03:49:21;;;;;;;0.00;0.00;;;;;;;14.28;100.00;100776.81;5070829;28;20467;-46
2023/08/27 03:51:47;;;;;;;0.00;0.00;;;;;;;14.18;100.00;100787.22;5070596;28;20039;-46
2023/08/27 03:54:12;;;;;;;0.00;0.00;;;;;;;14.11;100.00;100790.97;5070559;28;20025;-46
2023/08/27 03:56:37;;;;;;;0.00;0.00;;;;;;;14.08;100.00;100794.91;5070849;28;20025;-44
2023/08/27 03:59:03;;;;;;;0.00;0.00;;;;;;;13.95;100.00;100793.03;5071106;28;20029;-43
2023/08/27 04:01:29;;;;;;;0.00;0.00;;;;;;;13.92;100.00;100792.59;5070857;28;20182;-49
2023/08/27 04:03:55;;;;;;;0.00;0.00;;;;;;;13.86;100.00;100799.69;5070609;28;20115;-45
2023/08/27 04:06:21;;;;;;;0.00;0.00;;;;;;;13.83;100.00;100814.44;5068774;28;20154;-44
2023/08/27 04:08:46;;;;;;;0.00;0.00;;;;;;;13.75;100.00;100822.75;5068191;28;20622;-43
2023/08/27 04:11:12;;;;;;;0.00;0.00;;;;;;;13.76;100.00;100820.88;5068926;28;20025;-43
2023/08/27 04:13:37;;;;;;;0.00;0.00;;;;;;;13.77;100.00;100826.09;5077387;28;20431;-43
2023/08/27 04:16:05;;;;;;;0.00;0.00;;;;;;;13.80;100.00;100833.78;5087399;28;20037;-43
2023/08/27 04:18:32;;;;;;;;;;;;;;;13.88;100.00;100834.66;5072626;28;20052;-44
2023/08/27 04:20:57;;;;;;;0.00;0.00;;;;;;;13.92;100.00;100830.47;5070566;28;19923;-44
2023/08/27 04:23:23;;;;;;;0.00;0.00;;;;;;;13.95;100.00;100830.06;5072302;28;20036;-47
2023/08/27 04:25:48;;;;;;;0.00;0.00;;;;;;;13.98;100.00;100829.66;5071951;28;20025;-47
2023/08/27 04:28:15;;;;;;;0.00;0.00;;;;;;;13.93;100.00;100821.31;5076841;28;20107;-48
2023/08/27 04:30:40;;;;;;;0.00;0.00;;;;;;;13.89;100.00;100822.78;5075980;28;20521;-45
2023/08/27 04:33:06;;;;;;;0.00;0.00;;;;;;;13.79;100.00;100820.47;5090688;28;20032;-47
2023/08/27 04:35:31;;;;;;;0.00;0.00;;;;;;;13.80;100.00;100822.16;5085634;28;20034;-46
2023/08/27 04:37:57;;;;;;;0.00;0.00;;;;;;;13.82;100.00;100825.44;5071403;28;20505;-45
2023/08/27 04:40:22;;;;;;;0.00;0.00;;;;;;;13.82;100.00;100823.59;5072956;28;20119;-45
2023/08/27 04:42:48;;;;;;;0.00;0.00;;;;;;;13.79;100.00;100820.47;5078517;28;20386;-46
2023/08/27 04:45:13;;;;;;;0.00;0.00;;;;;;;13.76;100.00;100823.56;5067489;28;20389;-43
2023/08/27 04:47:38;;;;;;;0.00;0.00;;;;;;;13.71;100.00;100816.06;5080842;28;20505;-46
2023/08/27 04:50:05;;;;;;;0.00;0.00;;;;;;;13.65;100.00;100808.78;5075038;28;20028;-43
2023/08/27 04:52:30;;;;;;;0.00;0.00;;;;;;;13.60;100.00;100813.94;5091883;28;20020;-43
2023/08/27 04:54:56;;;;;;;0.00;0.00;;;;;;;13.63;100.00;100813.53;5079345;28;20458;-43
2023/08/27 04:57:21;;;;;;;0.00;0.00;;;;;;;13.60;100.00;100822.06;5069987;28;20043;-46
2023/08/27 04:59:46;;;;;;;0.00;0.00;;;;;;;13.59;100.00;100817.69;5071621;28;20457;-44
2023/08/27 05:02:12;;;;;;;0.00;0.00;;;;;;;13.56;100.00;100816.25;5071409;28;20086;-43
2023/08/27 05:04:37;;;;;;;0.00;0.00;;;;;;;13.53;100.00;100827.47;5056162;28;20040;-48
2023/08/27 05:07:03;;;;;;;0.00;0.00;;;;;;;13.53;100.00;100832.88;5071692;28;20025;-46
2023/08/27 05:09:28;;;;;;;0.00;0.00;;;;;;;13.55;100.00;100830.78;5076341;28;20032;-46
2023/08/27 05:11:53;;;;;;;0.00;0.00;;;;;;;13.55;100.00;100829.94;5071249;28;20123;-42
2023/08/27 05:14:19;;;;;;;0.00;0.00;;;;;;;13.53;100.00;100826.59;5073718;28;20524;-43
2023/08/27 05:16:44;;;;;;;0.00;0.00;;;;;;;13.44;100.00;100812.44;5075043;28;20025;-48
2023/08/27 05:19:09;;;;;;;0.00;0.00;;;;;;;13.42;100.00;100808.25;5073655;28;20048;-47
2023/08/27 05:21:35;;;;;;;0.00;0.00;;;;;;;13.38;100.00;100814.06;5067164;28;20305;-49
2023/08/27 05:24:00;;;;;;;0.00;0.00;;;;;;;13.43;100.00;100804.50;5076739;28;20029;-46
2023/08/27 05:26:26;;;;;;;0.00;0.00;;;;;;;13.54;100.00;100801.25;5077850;28;20025;-47
2023/08/27 05:28:51;;;;;;;0.00;0.00;;;;;;;13.53;100.00;100794.16;5075112;28;20048;-45
2023/08/27 05:31:17;;;;;;;0.00;0.00;;;;;;;13.47;100.00;100794.97;5073763;28;20394;-47
2023/08/27 05:33:42;;;;;;;0.00;0.00;;;;;;;13.60;100.00;100785.03;5068539;28;20457;-47
2023/08/27 05:36:07;;;;;;;0.00;0.00;;;;;;;13.69;100.00;100795.66;5071173;28;20032;-46
2023/08/27 05:38:33;;;;;;;0.00;0.00;;;;;;;13.72;100.00;100793.41;5069618;28;20058;-48
2023/08/27 05:40:58;;;;;;;0.00;0.00;;;;;;;13.89;100.00;100799.25;5071406;28;20029;-44
2023/08/27 05:43:24;;;;;;;0.00;0.00;;;;;;;14.20;100.00;100795.97;5069531;28;20068;-46
2023/08/27 05:45:49;;;;;;;0.00;0.00;;;;;;;14.55;100.00;100803.94;5076443;28;20024;-46
2023/08/27 05:48:15;;;;;;;0.00;0.00;;;;;;;14.78;100.00;100799.97;5068286;28;20036;-46
2023/08/27 05:50:40;;;;;;;0.00;0.00;;;;;;;15.23;100.00;100795.47;5067856;28;20522;-47
2023/08/27 05:53:05;;;;;;;0.00;0.00;;;;;;;15.26;100.00;100767.09;5070066;28;20009;-46
2023/08/27 05:55:31;;;;;;;0.00;0.00;;;;;;;15.37;100.00;100763.69;5071080;28;20020;-45
2023/08/27 05:57:57;;;;;;;0.00;0.00;;;;;;;15.07;100.00;100766.13;5072279;28;20059;-48
2023/08/27 06:00:22;;;;;;;0.00;0.00;;;;;;;14.98;100.00;100764.69;5054056;28;20077;-45
2023/08/27 06:02:47;;;;;;;0.00;0.00;;;;;;;14.91;100.00;100764.72;5071989;28;20024;-45
2023/08/27 06:05:13;;;;;;;0.00;0.00;;;;;;;15.01;100.00;100775.94;5071709;28;20024;-47
2023/08/27 06:07:39;;;;;;;0.00;0.00;;;;;;;15.06;100.00;100773.44;5069836;28;20131;-48
2023/08/27 06:10:05;;;;;;;0.00;0.00;;;;;;;15.33;100.00;100770.63;5071890;28;20187;-48
2023/08/27 06:12:30;;;;;;;0.00;0.00;;;;;;;15.53;100.00;100770.50;5072137;28;20029;-46
2023/08/27 06:14:56;;;;;;;0.00;0.00;;;;;;;15.72;100.00;100766.09;5071443;28;20463;-46
2023/08/27 06:17:22;;;;;;;0.00;0.00;;;;;;;15.87;100.00;100757.63;5072384;28;20024;-44
2023/08/27 06:19:47;;;;;;;0.00;0.00;;;;;;;16.23;100.00;100767.81;5071568;28;20031;-45
2023/08/27 06:22:13;;;;;;;0.00;0.00;;;;;;;16.41;100.00;100754.28;5072906;28;20029;-45
2023/08/27 06:24:38;;;;;;;0.00;0.00;;;;;;;17.13;100.00;100755.66;5073552;28;20431;-46
2023/08/27 06:27:03;;;;;;;0.00;0.00;;;;;;;17.03;100.00;100746.13;5073428;28;20081;-43
2023/08/27 06:29:29;;;;;;;0.00;0.00;;;;;;;17.43;100.00;100744.81;5086279;28;20654;-42
2023/08/27 06:31:55;;;;;;;0.00;0.00;;;;;;;17.15;100.00;100748.94;5062846;28;20032;-45
2023/08/27 06:34:21;;;;;;;0.00;0.00;;;;;;;16.99;100.00;100757.72;5081066;28;20086;-46
2023/08/27 06:36:46;;;;;;;0.00;0.00;;;;;;;16.77;100.00;100765.44;5074396;28;20326;-45
2023/08/27 06:39:11;;;;;;;0.00;0.00;;;;;;;16.43;100.00;100778.53;5090315;28;20032;-43
2023/08/27 06:41:37;;;;;;;0.00;0.00;;;;;;;15.96;100.00;100784.28;5090432;28;20028;-45
2023/08/27 06:44:02;;;;;;;0.00;0.00;;;;;;;15.73;100.00;100800.28;5090618;28;20358;-46
2023/08/27 06:46:29;;;;;;;0.00;0.00;;;;;;;15.18;100.00;100819.66;5075291;28;20036;-45
2023/08/27 06:48:56;;;;;;;0.00;0.00;;;;;;;15.09;100.00;100820.97;5080990;28;20040;-46
2023/08/27 06:51:21;;;;;;;0.00;0.00;;;;;;;14.96;100.00;100832.66;5070420;28;20062;-46
2023/08/27 06:53:47;;;;;;;0.00;0.00;;;;;;;14.86;100.00;100840.38;5069341;28;20032;-45
2023/08/27 06:56:12;;;;;;;0.00;0.00;;;;;;;14.71;100.00;100841.41;5064323;28;20021;-45
2023/08/27 06:58:38;;;;;;;0.00;0.00;;;;;;;14.70;100.00;100842.47;5058887;28;20080;-45
2023/08/27 07:01:04;;;;;;;0.00;0.00;;;;;;;14.63;100.00;100847.06;5062601;28;20049;-46
2023/08/27 07:03:31;;;;;;;0.00;0.00;;;;;;;14.56;100.00;100838.13;5085565;28;20032;-44
2023/08/27 07:05:56;;;;;;;0.00;0.00;;;;;;;14.42;100.00;100826.38;5089391;28;20037;-48
2023/08/27 07:08:22;;;;;;;0.00;0.00;;;;;;;14.48;100.00;100822.00;5090906;28;20048;-47
2023/08/27 07:10:48;;;;;;;0.00;0.00;;;;;;;14.40;100.00;100814.09;5076285;28;20028;-46
2023/08/27 07:13:13;;;;;;;0.00;0.00;;;;;;;14.49;100.00;100778.50;5070735;28;20024;-47
2023/08/27 07:15:38;;;;;;;0.00;0.00;;;;;;;14.55;100.00;100781.44;5071054;28;20024;-45
2023/08/27 07:18:04;;;;;;;0.00;0.00;;;;;;;14.58;100.00;100781.84;5071771;28;20036;-44
2023/08/27 07:20:29;;;;;;;0.00;0.00;;;;;;;14.66;100.00;100792.44;5071385;28;20028;-45
2023/08/27 07:22:55;;;;;;;0.00;0.00;;;;;;;14.56;100.00;100789.38;5072209;28;20072;-45
2023/08/27 07:25:23;;;;;;;0.00;0.00;;;;;;;14.49;100.00;100804.75;5070916;28;20037;-46
2023/08/27 07:27:49;;;;;;;0.00;0.00;;;;;;;14.30;100.00;100795.59;5071009;28;20474;-47
2023/08/27 07:30:14;;;;;;;0.00;0.00;;;;;;;14.45;100.00;100792.66;5070994;28;20043;-45
2023/08/27 07:32:39;;;;;;;0.00;0.00;;;;;;;14.37;100.00;100780.16;5070840;28;20457;-47
2023/08/27 07:35:05;;;;;;;0.00;0.00;;;;;;;14.36;100.00;100772.25;5071446;28;20479;-43
2023/08/27 07:37:30;;;;;;;0.00;0.00;;;;;;;14.40;100.00;100766.22;5070899;28;20040;-46
2023/08/27 07:39:56;;;;;;;0.00;0.00;;;;;;;14.31;100.00;100758.50;5070956;28;20077;-45
2023/08/27 07:42:21;;;;;;;0.00;0.00;;;;;;;14.37;100.00;100760.38;5068912;28;20029;-45
2023/08/27 07:44:47;;;;;;;0.00;0.00;;;;;;;14.47;100.00;100766.19;5074779;28;20058;-44
2023/08/27 07:47:13;;;;;;;0.00;0.00;;;;;;;14.38;100.00;100765.59;5082388;28;20082;-42
2023/08/27 07:49:38;;;;;;;0.00;0.00;;;;;;;14.36;100.00;100758.72;5072363;28;20033;-42
2023/08/27 07:52:04;;;;;;;0.00;0.00;;;;;;;14.24;100.00;100742.25;5074878;28;20112;-42
2023/08/27 07:54:29;;;;;;;0.00;0.00;;;;;;;14.24;100.00;100747.66;5079527;28;20055;-43
2023/08/27 07:56:54;;;;;;;0.00;0.00;;;;;;;14.16;100.00;100753.28;5074569;28;20039;-46
2023/08/27 07:59:20;;;;;;;0.00;0.00;;;;;;;14.04;100.00;100753.09;5063295;28;20097;-44
2023/08/27 08:01:45;;;;;;;0.00;0.00;;;;;;;14.07;100.00;100749.13;5051605;28;20449;-45
2023/08/27 08:04:10;;;;;;;0.00;0.00;;;;;;;14.02;100.00;100760.56;5071360;28;20163;-43
2023/08/27 08:06:36;;;;;;;0.00;0.00;;;;;;;14.05;100.00;100760.97;5071918;28;20040;-45
2023/08/27 08:09:01;;;;;;;0.00;0.00;;;;;;;14.07;100.00;100752.66;5076025;28;20037;-43
2023/08/27 08:11:26;;;;;;;0.00;0.00;;;;;;;13.99;100.00;100756.41;5082247;28;20054;-44
2023/08/27 08:13:52;;;;;;;0.00;0.00;;;;;;;13.98;100.00;100760.16;5080974;28;20028;-43
2023/08/27 08:16:17;;;;;;;0.00;0.00;;;;;;;13.98;100.00;100770.13;5080299;28;20039;-44
2023/08/27 08:18:43;;;;;;;0.00;0.00;;;;;;;14.03;100.00;100778.47;5071348;28;20105;-46
2023/08/27 08:21:08;;;;;;;0.00;0.00;;;;;;;14.04;100.00;100780.16;5077792;28;20024;-47
2023/08/27 08:23:33;;;;;;;0.00;0.00;;;;;;;14.09;100.00;100785.78;5078265;28;20033;-44
2023/08/27 08:26:00;;;;;;;0.00;0.00;;;;;;;13.90;100.00;100789.25;5074370;28;20074;-44
2023/08/27 08:28:26;;;;;;;0.00;0.00;;;;;;;13.88;100.00;100791.38;5072152;28;20029;-45
2023/08/27 08:30:51;;;;;;;0.00;0.00;;;;;;;13.90;100.00;100779.31;5073574;28;20443;-44
2023/08/27 08:33:17;;;;;;;0.00;0.00;;;;;;;14.00;100.00;100785.13;5070412;28;20027;-42
2023/08/27 08:35:43;;;;;;;0.00;0.00;;;;;;;14.03;100.00;100784.72;5051585;28;20025;-48
2023/08/27 08:38:08;;;;;;;0.00;0.00;;;;;;;14.14;100.00;100788.69;5069990;28;20484;-48
2023/08/27 08:40:39;;;;;;;0.00;0.00;;;;;;;14.27;100.00;100775.16;5052792;28;20099;-46
2023/08/27 08:43:05;;;;;;;0.00;0.00;;;;;;;14.52;100.00;100771.81;5070783;28;20109;-49
2023/08/27 08:45:44;;;;;;;0.00;0.00;;;;;;;14.84;100.00;100763.88;5052770;28;20028;-44
2023/08/27 08:48:11;;;;;;;0.00;0.00;;;;;;;15.05;100.00;100765.50;5062196;28;20028;-45
2023/08/27 08:50:40;;;;;;;0.00;0.00;;;;;;;15.01;100.00;100773.22;5071293;28;20367;-44
2023/08/27 08:53:14;;;;;;;0.00;0.00;;;;;;;14.84;100.00;100769.31;5070854;28;20443;-50
2023/08/27 08:55:48;;;;;;;0.00;0.00;;;;;;;14.57;100.00;100763.94;5071375;28;20157;-45
2023/08/27 08:58:13;;;;;;;0.00;0.00;;;;;;;14.62;100.00;100766.84;5069939;28;20032;-46
2023/08/27 09:00:39;;;;;;;0.00;0.00;;;;;;;14.53;100.00;100776.22;5074402;28;20113;-46
2023/08/27 09:03:04;;;;;;;0.00;0.00;;;;;;;14.52;100.00;100776.41;5074425;28;20490;-49
2023/08/27 09:05:34;;;;;;;0.00;0.00;;;;;;;14.43;100.00;100773.09;5074687;28;20036;-47
2023/08/27 09:07:59;;;;;;;0.00;0.00;;;;;;;14.42;100.00;100783.06;5074693;28;20043;-45
2023/08/27 09:10:25;;;;;;;0.00;0.00;;;;;;;14.39;100.00;100777.25;5074784;28;20032;-47
2023/08/27 09:12:55;;;;;;;0.00;0.00;;;;;;;14.35;100.00;100784.09;5074651;28;20021;-46
2023/08/27 09:15:21;;;;;;;0.00;0.00;;;;;;;14.25;100.00;100793.50;5074639;28;20033;-47
2023/08/27 09:17:47;;;;;;;0.00;0.00;;;;;;;14.12;100.00;100782.66;5074653;28;20387;-45
2023/08/27 09:20:12;;;;;;;0.00;0.00;;;;;;;14.03;100.00;100784.72;5074579;28;20047;-44
2023/08/27 09:22:38;;;;;;;0.00;0.00;;;;;;;14.04;100.00;100785.56;5074426;28;20658;-45
2023/08/27 09:25:04;;;;;;;0.00;0.00;;;;;;;14.01;100.00;100810.34;5074446;28;20033;-43
2023/08/27 09:27:30;;;;;;;0.00;0.00;;;;;;;13.87;100.00;100805.91;5075483;28;20017;-44
2023/08/27 09:29:59;;;;;;;0.00;0.00;;;;;;;13.67;100.00;100797.75;5074522;28;20029;-47
2023/08/27 09:32:24;;;;;;;0.00;0.00;;;;;;;13.67;100.00;100792.34;5072950;28;20142;-47
2023/08/27 09:35:00;;;;;;;0.00;0.00;;;;;;;13.58;100.00;100786.28;5073773;28;20100;-46
2023/08/27 09:37:40;;;;;;;0.00;0.00;;;;;;;13.59;100.00;100793.38;5056057;28;20435;-49
2023/08/27 09:40:06;;;;;;;0.00;0.00;;;;;;;13.63;100.00;100781.09;5053727;28;20029;-50
2023/08/27 09:42:32;;;;;;;0.00;0.00;;;;;;;13.70;100.00;100781.94;5053356;28;20029;-48
2023/08/27 09:44:58;;;;;;;0.00;0.00;;;;;;;13.78;100.00;100781.75;5053937;28;20036;-48
2023/08/27 09:47:35;;;;;;;0.00;0.00;;;;;;;13.84;100.00;100782.81;5054008;28;20083;-46
2023/08/27 09:50:14;;;;;;;0.00;0.00;;;;;;;13.90;100.00;100778.44;5053852;28;20146;-45
2023/08/27 09:52:39;;;;;;;0.00;0.00;;;;;;;14.00;100.00;100778.88;5053446;28;20367;-46
2023/08/27 09:55:13;;;;;;;0.00;0.00;;;;;;;14.07;100.00;100789.72;5053303;28;20036;-45
2023/08/27 09:57:38;;;;;;;0.00;0.00;;;;;;;14.11;100.00;100797.22;5053721;28;20021;-45
2023/08/27 10:00:08;;;;;;;0.00;0.00;;;;;;;14.16;100.00;100805.53;5053481;28;20360;-44
2023/08/27 10:02:35;;;;;;;0.00;0.00;;;;;;;14.30;100.00;100801.00;5053382;28;20509;-46
2023/08/27 10:05:00;;;;;;;0.00;0.00;;;;;;;14.41;100.00;100813.06;5052852;28;20025;-47
2023/08/27 10:07:26;;;;;;;0.00;0.00;;;;;;;14.52;100.00;100796.19;5053585;28;20035;-46
2023/08/27 10:09:52;;;;;;;0.00;0.00;;;;;;;14.61;100.00;100808.53;5053345;28;20033;-46
2023/08/27 10:12:19;;;;;;;0.00;0.00;;;;;;;14.67;100.00;100801.44;5053329;28;20483;-47
2023/08/27 10:14:45;;;;;;;0.00;0.00;;;;;;;14.69;100.00;100805.59;5053299;28;20440;-46
2023/08/27 10:17:11;;;;;;;0.00;0.00;;;;;;;14.75;100.00;100797.69;5053777;28;20032;-46
2023/08/27 10:19:37;;;;;;;0.00;0.00;;;;;;;14.78;100.00;100797.25;5053439;28;20037;-46
2023/08/27 10:22:03;;;;;;;0.00;0.00;;;;;;;14.90;100.00;100804.53;5053106;28;20436;-45
2023/08/27 10:24:29;;;;;;;0.00;0.00;;;;;;;15.01;100.00;100802.19;5053181;28;20121;-47
2023/08/27 10:26:59;;;;;;;0.00;0.00;;;;;;;15.29;100.00;100797.31;5053353;28;20040;-45
2023/08/27 10:29:26;;;;;;;0.00;0.00;;;;;;;15.50;100.00;100793.47;5053222;28;20032;-49
2023/08/27 10:31:52;;;;;;;0.00;0.00;;;;;;;15.69;100.00;100805.34;5053120;28;20116;-45
2023/08/27 10:34:18;;;;;;;0.00;0.00;;;;;;;15.80;100.00;100795.66;5053085;28;20115;-47
2023/08/27 10:36:44;;;;;;;0.00;0.00;;;;;;;15.94;100.00;100786.38;5052917;28;20105;-46
2023/08/27 10:39:10;;;;;;;0.00;0.00;;;;;;;15.99;100.00;100764.84;5053342;28;20033;-46
2023/08/27 10:41:36;;;;;;;0.00;0.00;;;;;;;16.24;100.00;100754.03;5035740;28;20083;-45
2023/08/27 10:44:01;;;;;;;0.00;0.00;;;;;;;16.38;100.00;100759.34;5053099;28;20103;-44
2023/08/27 10:46:27;;;;;;;0.00;0.00;;;;;;;16.50;100.00;100756.72;5052813;28;20138;-44
2023/08/27 10:48:54;;;;;;;0.00;0.00;;;;;;;16.78;100.00;100751.66;5052815;28;20044;-47
2023/08/27 10:51:21;;;;;;;0.00;0.00;;;;;;;17.17;100.00;100749.56;5052669;28;20094;-45
2023/08/27 10:53:49;;;;;;;0.00;0.00;;;;;;;17.42;100.00;100756.78;5052727;28;20120;-46
2023/08/27 10:56:32;;;;;;;0.00;0.00;;;;;;;17.59;100.00;100751.50;5052602;28;20100;-50
2023/08/27 10:59:27;;;;;;;0.00;0.00;;;;;;;17.62;100.00;100749.16;5052972;28;20045;-44
2023/08/27 11:02:09;;;;;;;0.00;0.00;;;;;;;17.71;100.00;100750.50;5041262;28;20109;-46
2023/08/27 11:04:36;;;;;;;0.00;0.00;;;;;;;17.99;100.00;100763.53;5053145;28;20032;-44
2023/08/27 11:07:17;;;;;;;0.00;0.00;;;;;;;18.07;100.00;100750.63;5052705;28;20035;-46
2023/08/27 11:09:56;;;;;;;0.00;0.00;;;;;;;18.27;100.00;100756.56;5052329;28;20052;-47
2023/08/27 11:12:34;;;;;;;0.00;0.00;;;;;;;18.52;100.00;100750.91;5051175;28;20036;-46
2023/08/27 11:15:31;;;;;;;0.00;0.00;;;;;;;18.95;100.00;100751.63;5052245;28;20036;-44